sensor_id;sensor_type;location;lat;lon;timestamp;P1;durP1;ratioP1;P2;durP2;ratioP2
12127;SDS011;6127;57.702;11.904;2023-04-15T00:01:35;0.30;;;0.30;;
12127;SDS011;6127;57.702;11.904;2023-04-15T00:04:01;0.20;;;0.20;;
12127;SDS011;6127;57.702;11.904;2023-04-15T00:06:28;0.20;;;0.20;;
12127;SDS011;6127;57.702;11.904;2023-04-15T00:08:55;0.30;;;0.30;;
12127;SDS011;6127;57.702;11.904;2023-04-15T00:11:21;0.20;;;0.20;;
12127;SDS011;6127;57.702;11.904;2023-04-15T00:13:48;0.20;;;0.20;;
12127;SDS011;6127;57.702;11.904;2023-04-15T00:16:14;0.25;;;0.25;;
12127;SDS011;6127;57.702;11.904;2023-04-15T00:18:40;0.30;;;0.30;;
12127;SDS011;6127;57.702;11.904;2023-04-15T00:21:06;0.20;;;0.20;;
12127;SDS011;6127;57.702;11.904;2023-04-15T00:23:32;0.20;;;0.20;;
12127;SDS011;6127;57.702;11.904;2023-04-15T00:26:00;0.20;;;0.20;;
12127;SDS011;6127;57.702;11.904;2023-04-15T00:28:26;0.20;;;0.20;;
12127;SDS011;6127;57.702;11.904;2023-04-15T00:30:52;0.20;;;0.20;;
12127;SDS011;6127;57.702;11.904;2023-04-15T00:33:18;0.20;;;0.20;;
12127;SDS011;6127;57.702;11.904;2023-04-15T00:35:44;0.13;;;0.13;;
12127;SDS011;6127;57.702;11.904;2023-04-15T00:38:10;0.20;;;0.20;;
12127;SDS011;6127;57.702;11.904;2023-04-15T00:40:36;0.17;;;0.17;;
12127;SDS011;6127;57.702;11.904;2023-04-15T00:43:02;0.20;;;0.20;;
12127;SDS011;6127;57.702;11.904;2023-04-15T00:45:28;0.20;;;0.20;;
12127;SDS011;6127;57.702;11.904;2023-04-15T00:47:54;0.20;;;0.20;;
12127;SDS011;6127;57.702;11.904;2023-04-15T00:50:20;0.20;;;0.20;;
12127;SDS011;6127;57.702;11.904;2023-04-15T00:52:47;0.30;;;0.30;;
12127;SDS011;6127;57.702;11.904;2023-04-15T00:55:13;0.32;;;0.32;;
12127;SDS011;6127;57.702;11.904;2023-04-15T00:57:39;0.30;;;0.30;;
12127;SDS011;6127;57.702;11.904;2023-04-15T01:00:05;0.38;;;0.38;;
12127;SDS011;6127;57.702;11.904;2023-04-15T01:02:36;0.38;;;0.38;;
12127;SDS011;6127;57.702;11.904;2023-04-15T01:05:03;0.45;;;0.45;;
12127;SDS011;6127;57.702;11.904;2023-04-15T01:07:29;0.40;;;0.40;;
12127;SDS011;6127;57.702;11.904;2023-04-15T01:09:55;0.28;;;0.28;;
12127;SDS011;6127;57.702;11.904;2023-04-15T01:12:22;0.35;;;0.35;;
12127;SDS011;6127;57.702;11.904;2023-04-15T01:14:49;0.40;;;0.40;;
12127;SDS011;6127;57.702;11.904;2023-04-15T01:17:15;0.38;;;0.38;;
12127;SDS011;6127;57.702;11.904;2023-04-15T01:19:41;0.40;;;0.40;;
12127;SDS011;6127;57.702;11.904;2023-04-15T01:22:07;0.40;;;0.40;;
12127;SDS011;6127;57.702;11.904;2023-04-15T01:24:34;0.40;;;0.40;;
12127;SDS011;6127;57.702;11.904;2023-04-15T01:27:00;0.40;;;0.40;;
12127;SDS011;6127;57.702;11.904;2023-04-15T01:29:27;0.30;;;0.30;;
12127;SDS011;6127;57.702;11.904;2023-04-15T01:31:54;0.40;;;0.40;;
12127;SDS011;6127;57.702;11.904;2023-04-15T01:34:21;0.40;;;0.40;;
12127;SDS011;6127;57.702;11.904;2023-04-15T01:36:47;0.40;;;0.40;;
12127;SDS011;6127;57.702;11.904;2023-04-15T01:39:13;0.40;;;0.40;;
12127;SDS011;6127;57.702;11.904;2023-04-15T01:41:39;0.40;;;0.40;;
12127;SDS011;6127;57.702;11.904;2023-04-15T01:44:06;0.40;;;0.40;;
12127;SDS011;6127;57.702;11.904;2023-04-15T01:46:32;0.40;;;0.40;;
12127;SDS011;6127;57.702;11.904;2023-04-15T01:48:58;0.35;;;0.35;;
12127;SDS011;6127;57.702;11.904;2023-04-15T01:51:24;0.40;;;0.40;;
12127;SDS011;6127;57.702;11.904;2023-04-15T01:53:51;0.40;;;0.40;;
12127;SDS011;6127;57.702;11.904;2023-04-15T01:56:17;0.40;;;0.40;;
12127;SDS011;6127;57.702;11.904;2023-04-15T01:58:43;0.40;;;0.40;;
12127;SDS011;6127;57.702;11.904;2023-04-15T02:01:09;0.40;;;0.40;;
12127;SDS011;6127;57.702;11.904;2023-04-15T02:03:35;0.45;;;0.45;;
12127;SDS011;6127;57.702;11.904;2023-04-15T02:06:02;0.40;;;0.40;;
12127;SDS011;6127;57.702;11.904;2023-04-15T02:08:28;0.40;;;0.40;;
12127;SDS011;6127;57.702;11.904;2023-04-15T02:10:54;0.40;;;0.40;;
12127;SDS011;6127;57.702;11.904;2023-04-15T02:13:21;0.40;;;0.40;;
12127;SDS011;6127;57.702;11.904;2023-04-15T02:15:47;0.40;;;0.40;;
12127;SDS011;6127;57.702;11.904;2023-04-15T02:18:14;0.40;;;0.40;;
12127;SDS011;6127;57.702;11.904;2023-04-15T02:20:40;0.40;;;0.40;;
12127;SDS011;6127;57.702;11.904;2023-04-15T02:23:08;0.50;;;0.50;;
12127;SDS011;6127;57.702;11.904;2023-04-15T02:25:35;0.40;;;0.40;;
12127;SDS011;6127;57.702;11.904;2023-04-15T02:28:01;0.40;;;0.40;;
12127;SDS011;6127;57.702;11.904;2023-04-15T02:30:27;0.30;;;0.30;;
12127;SDS011;6127;57.702;11.904;2023-04-15T02:32:53;0.30;;;0.30;;
12127;SDS011;6127;57.702;11.904;2023-04-15T02:35:19;0.40;;;0.40;;
12127;SDS011;6127;57.702;11.904;2023-04-15T02:37:45;0.38;;;0.38;;
12127;SDS011;6127;57.702;11.904;2023-04-15T02:40:11;0.32;;;0.32;;
12127;SDS011;6127;57.702;11.904;2023-04-15T02:42:38;0.35;;;0.35;;
12127;SDS011;6127;57.702;11.904;2023-04-15T02:45:04;0.30;;;0.30;;
12127;SDS011;6127;57.702;11.904;2023-04-15T02:47:31;0.30;;;0.30;;
12127;SDS011;6127;57.702;11.904;2023-04-15T02:49:57;0.22;;;0.22;;
12127;SDS011;6127;57.702;11.904;2023-04-15T02:52:24;0.20;;;0.20;;
12127;SDS011;6127;57.702;11.904;2023-04-15T02:54:50;0.20;;;0.20;;
12127;SDS011;6127;57.702;11.904;2023-04-15T02:57:17;0.20;;;0.20;;
12127;SDS011;6127;57.702;11.904;2023-04-15T02:59:43;0.20;;;0.20;;
12127;SDS011;6127;57.702;11.904;2023-04-15T03:02:09;0.20;;;0.20;;
12127;SDS011;6127;57.702;11.904;2023-04-15T03:04:35;0.20;;;0.20;;
12127;SDS011;6127;57.702;11.904;2023-04-15T03:07:01;0.30;;;0.30;;
12127;SDS011;6127;57.702;11.904;2023-04-15T03:09:27;0.30;;;0.30;;
12127;SDS011;6127;57.702;11.904;2023-04-15T03:11:53;0.30;;;0.30;;
12127;SDS011;6127;57.702;11.904;2023-04-15T03:14:19;0.30;;;0.30;;
12127;SDS011;6127;57.702;11.904;2023-04-15T03:16:45;0.30;;;0.30;;
12127;SDS011;6127;57.702;11.904;2023-04-15T03:19:11;0.30;;;0.30;;
12127;SDS011;6127;57.702;11.904;2023-04-15T03:21:37;0.30;;;0.30;;
12127;SDS011;6127;57.702;11.904;2023-04-15T03:24:03;0.30;;;0.30;;
12127;SDS011;6127;57.702;11.904;2023-04-15T03:26:29;0.30;;;0.30;;
12127;SDS011;6127;57.702;11.904;2023-04-15T03:28:56;0.30;;;0.30;;
12127;SDS011;6127;57.702;11.904;2023-04-15T03:31:22;0.30;;;0.30;;
12127;SDS011;6127;57.702;11.904;2023-04-15T03:33:48;0.30;;;0.30;;
12127;SDS011;6127;57.702;11.904;2023-04-15T03:36:14;0.30;;;0.30;;
12127;SDS011;6127;57.702;11.904;2023-04-15T03:38:41;0.30;;;0.30;;
12127;SDS011;6127;57.702;11.904;2023-04-15T03:41:07;0.30;;;0.30;;
12127;SDS011;6127;57.702;11.904;2023-04-15T03:43:33;0.30;;;0.30;;
12127;SDS011;6127;57.702;11.904;2023-04-15T03:45:59;0.30;;;0.30;;
12127;SDS011;6127;57.702;11.904;2023-04-15T03:48:25;0.30;;;0.30;;
12127;SDS011;6127;57.702;11.904;2023-04-15T03:50:51;0.40;;;0.40;;
12127;SDS011;6127;57.702;11.904;2023-04-15T03:53:17;0.30;;;0.30;;
12127;SDS011;6127;57.702;11.904;2023-04-15T03:55:43;0.40;;;0.40;;
12127;SDS011;6127;57.702;11.904;2023-04-15T03:58:09;0.40;;;0.40;;
12127;SDS011;6127;57.702;11.904;2023-04-15T04:00:36;0.40;;;0.40;;
12127;SDS011;6127;57.702;11.904;2023-04-15T04:03:02;0.40;;;0.40;;
12127;SDS011;6127;57.702;11.904;2023-04-15T04:05:28;0.40;;;0.40;;
12127;SDS011;6127;57.702;11.904;2023-04-15T04:07:54;0.30;;;0.30;;
12127;SDS011;6127;57.702;11.904;2023-04-15T04:10:20;0.25;;;0.25;;
12127;SDS011;6127;57.702;11.904;2023-04-15T04:12:46;0.20;;;0.20;;
12127;SDS011;6127;57.702;11.904;2023-04-15T04:15:12;0.15;;;0.15;;
12127;SDS011;6127;57.702;11.904;2023-04-15T04:17:38;0.20;;;0.20;;
12127;SDS011;6127;57.702;11.904;2023-04-15T04:20:04;0.22;;;0.22;;
12127;SDS011;6127;57.702;11.904;2023-04-15T04:22:35;0.30;;;0.30;;
12127;SDS011;6127;57.702;11.904;2023-04-15T04:25:01;0.30;;;0.30;;
12127;SDS011;6127;57.702;11.904;2023-04-15T04:27:27;0.30;;;0.30;;
12127;SDS011;6127;57.702;11.904;2023-04-15T04:29:53;0.30;;;0.30;;
12127;SDS011;6127;57.702;11.904;2023-04-15T04:32:19;0.30;;;0.30;;
12127;SDS011;6127;57.702;11.904;2023-04-15T04:34:45;0.30;;;0.30;;
12127;SDS011;6127;57.702;11.904;2023-04-15T04:37:12;0.30;;;0.30;;
12127;SDS011;6127;57.702;11.904;2023-04-15T04:39:38;0.30;;;0.30;;
12127;SDS011;6127;57.702;11.904;2023-04-15T04:42:04;0.40;;;0.40;;
12127;SDS011;6127;57.702;11.904;2023-04-15T04:44:30;0.40;;;0.40;;
12127;SDS011;6127;57.702;11.904;2023-04-15T04:46:56;0.40;;;0.40;;
12127;SDS011;6127;57.702;11.904;2023-04-15T04:49:22;0.40;;;0.40;;
12127;SDS011;6127;57.702;11.904;2023-04-15T04:51:48;0.40;;;0.40;;
12127;SDS011;6127;57.702;11.904;2023-04-15T04:54:14;0.50;;;0.50;;
12127;SDS011;6127;57.702;11.904;2023-04-15T04:56:40;0.40;;;0.40;;
12127;SDS011;6127;57.702;11.904;2023-04-15T04:59:06;0.30;;;0.30;;
12127;SDS011;6127;57.702;11.904;2023-04-15T05:01:33;0.20;;;0.20;;
12127;SDS011;6127;57.702;11.904;2023-04-15T05:03:59;0.20;;;0.20;;
12127;SDS011;6127;57.702;11.904;2023-04-15T05:06:25;0.20;;;0.20;;
12127;SDS011;6127;57.702;11.904;2023-04-15T05:08:54;0.20;;;0.20;;
12127;SDS011;6127;57.702;11.904;2023-04-15T05:11:20;0.30;;;0.30;;
12127;SDS011;6127;57.702;11.904;2023-04-15T05:13:46;0.30;;;0.30;;
12127;SDS011;6127;57.702;11.904;2023-04-15T05:16:12;0.30;;;0.30;;
12127;SDS011;6127;57.702;11.904;2023-04-15T05:18:38;0.30;;;0.30;;
12127;SDS011;6127;57.702;11.904;2023-04-15T05:21:04;0.30;;;0.30;;
12127;SDS011;6127;57.702;11.904;2023-04-15T05:23:30;0.40;;;0.40;;
12127;SDS011;6127;57.702;11.904;2023-04-15T05:25:56;0.40;;;0.40;;
12127;SDS011;6127;57.702;11.904;2023-04-15T05:28:22;0.40;;;0.40;;
12127;SDS011;6127;57.702;11.904;2023-04-15T05:30:48;0.40;;;0.40;;
12127;SDS011;6127;57.702;11.904;2023-04-15T05:33:14;0.40;;;0.40;;
12127;SDS011;6127;57.702;11.904;2023-04-15T05:35:41;0.30;;;0.30;;
12127;SDS011;6127;57.702;11.904;2023-04-15T05:38:07;0.20;;;0.20;;
12127;SDS011;6127;57.702;11.904;2023-04-15T05:40:33;0.17;;;0.17;;
12127;SDS011;6127;57.702;11.904;2023-04-15T05:42:59;0.20;;;0.20;;
12127;SDS011;6127;57.702;11.904;2023-04-15T05:45:25;0.20;;;0.20;;
12127;SDS011;6127;57.702;11.904;2023-04-15T05:47:51;0.30;;;0.30;;
12127;SDS011;6127;57.702;11.904;2023-04-15T05:50:18;0.22;;;0.22;;
12127;SDS011;6127;57.702;11.904;2023-04-15T05:52:44;0.30;;;0.30;;
12127;SDS011;6127;57.702;11.904;2023-04-15T05:55:10;0.30;;;0.30;;
12127;SDS011;6127;57.702;11.904;2023-04-15T05:57:36;0.30;;;0.30;;
12127;SDS011;6127;57.702;11.904;2023-04-15T06:00:03;0.30;;;0.30;;
12127;SDS011;6127;57.702;11.904;2023-04-15T06:02:29;0.30;;;0.30;;
12127;SDS011;6127;57.702;11.904;2023-04-15T06:04:55;0.30;;;0.30;;
12127;SDS011;6127;57.702;11.904;2023-04-15T06:07:21;0.30;;;0.30;;
12127;SDS011;6127;57.702;11.904;2023-04-15T06:09:47;0.40;;;0.40;;
12127;SDS011;6127;57.702;11.904;2023-04-15T06:12:14;0.40;;;0.40;;
12127;SDS011;6127;57.702;11.904;2023-04-15T06:14:40;0.30;;;0.30;;
12127;SDS011;6127;57.702;11.904;2023-04-15T06:17:07;0.40;;;0.40;;
12127;SDS011;6127;57.702;11.904;2023-04-15T06:19:33;0.40;;;0.40;;
12127;SDS011;6127;57.702;11.904;2023-04-15T06:22:00;0.47;;;0.47;;
12127;SDS011;6127;57.702;11.904;2023-04-15T06:24:26;0.40;;;0.40;;
12127;SDS011;6127;57.702;11.904;2023-04-15T06:26:52;0.40;;;0.40;;
12127;SDS011;6127;57.702;11.904;2023-04-15T06:29:18;0.40;;;0.40;;
12127;SDS011;6127;57.702;11.904;2023-04-15T06:31:44;0.40;;;0.40;;
12127;SDS011;6127;57.702;11.904;2023-04-15T06:34:11;0.40;;;0.40;;
12127;SDS011;6127;57.702;11.904;2023-04-15T06:36:37;0.40;;;0.40;;
12127;SDS011;6127;57.702;11.904;2023-04-15T06:39:03;0.40;;;0.40;;
12127;SDS011;6127;57.702;11.904;2023-04-15T06:41:29;0.40;;;0.40;;
12127;SDS011;6127;57.702;11.904;2023-04-15T06:43:55;0.40;;;0.40;;
12127;SDS011;6127;57.702;11.904;2023-04-15T06:46:21;0.47;;;0.47;;
12127;SDS011;6127;57.702;11.904;2023-04-15T06:48:47;0.40;;;0.40;;
12127;SDS011;6127;57.702;11.904;2023-04-15T06:51:13;0.40;;;0.40;;
12127;SDS011;6127;57.702;11.904;2023-04-15T06:53:39;0.40;;;0.40;;
12127;SDS011;6127;57.702;11.904;2023-04-15T06:56:08;0.40;;;0.40;;
12127;SDS011;6127;57.702;11.904;2023-04-15T06:58:34;0.40;;;0.40;;
12127;SDS011;6127;57.702;11.904;2023-04-15T07:01:00;0.40;;;0.40;;
12127;SDS011;6127;57.702;11.904;2023-04-15T07:03:26;0.40;;;0.40;;
12127;SDS011;6127;57.702;11.904;2023-04-15T07:05:52;0.30;;;0.30;;
12127;SDS011;6127;57.702;11.904;2023-04-15T07:08:18;0.40;;;0.40;;
12127;SDS011;6127;57.702;11.904;2023-04-15T07:10:45;0.40;;;0.40;;
12127;SDS011;6127;57.702;11.904;2023-04-15T07:13:11;0.30;;;0.30;;
12127;SDS011;6127;57.702;11.904;2023-04-15T07:15:37;0.30;;;0.30;;
12127;SDS011;6127;57.702;11.904;2023-04-15T07:18:03;0.30;;;0.30;;
12127;SDS011;6127;57.702;11.904;2023-04-15T07:20:29;0.30;;;0.30;;
12127;SDS011;6127;57.702;11.904;2023-04-15T07:22:55;0.20;;;0.20;;
12127;SDS011;6127;57.702;11.904;2023-04-15T07:25:21;0.20;;;0.20;;
12127;SDS011;6127;57.702;11.904;2023-04-15T07:27:47;0.20;;;0.20;;
12127;SDS011;6127;57.702;11.904;2023-04-15T07:30:13;0.25;;;0.25;;
12127;SDS011;6127;57.702;11.904;2023-04-15T07:32:40;0.30;;;0.30;;
12127;SDS011;6127;57.702;11.904;2023-04-15T07:35:06;0.40;;;0.40;;
12127;SDS011;6127;57.702;11.904;2023-04-15T07:37:33;0.32;;;0.32;;
12127;SDS011;6127;57.702;11.904;2023-04-15T07:40:00;0.38;;;0.38;;
12127;SDS011;6127;57.702;11.904;2023-04-15T07:42:26;0.30;;;0.30;;
12127;SDS011;6127;57.702;11.904;2023-04-15T07:44:53;0.30;;;0.30;;
12127;SDS011;6127;57.702;11.904;2023-04-15T07:47:19;0.30;;;0.30;;
12127;SDS011;6127;57.702;11.904;2023-04-15T07:49:45;0.20;;;0.20;;
12127;SDS011;6127;57.702;11.904;2023-04-15T07:52:11;0.20;;;0.20;;
12127;SDS011;6127;57.702;11.904;2023-04-15T07:54:38;0.20;;;0.20;;
12127;SDS011;6127;57.702;11.904;2023-04-15T07:57:04;0.30;;;0.30;;
12127;SDS011;6127;57.702;11.904;2023-04-15T07:59:30;0.35;;;0.35;;
12127;SDS011;6127;57.702;11.904;2023-04-15T08:01:57;0.40;;;0.40;;
12127;SDS011;6127;57.702;11.904;2023-04-15T08:04:24;0.40;;;0.40;;
12127;SDS011;6127;57.702;11.904;2023-04-15T08:06:50;0.40;;;0.40;;
12127;SDS011;6127;57.702;11.904;2023-04-15T08:09:16;0.30;;;0.30;;
12127;SDS011;6127;57.702;11.904;2023-04-15T08:11:43;0.30;;;0.30;;
12127;SDS011;6127;57.702;11.904;2023-04-15T08:14:10;0.30;;;0.30;;
12127;SDS011;6127;57.702;11.904;2023-04-15T08:16:36;0.30;;;0.30;;
12127;SDS011;6127;57.702;11.904;2023-04-15T08:19:02;0.20;;;0.20;;
12127;SDS011;6127;57.702;11.904;2023-04-15T08:21:29;0.20;;;0.20;;
12127;SDS011;6127;57.702;11.904;2023-04-15T08:23:55;0.22;;;0.22;;
12127;SDS011;6127;57.702;11.904;2023-04-15T08:26:21;0.40;;;0.40;;
12127;SDS011;6127;57.702;11.904;2023-04-15T08:28:48;0.40;;;0.40;;
12127;SDS011;6127;57.702;11.904;2023-04-15T08:31:15;0.40;;;0.40;;
12127;SDS011;6127;57.702;11.904;2023-04-15T08:33:41;0.40;;;0.40;;
12127;SDS011;6127;57.702;11.904;2023-04-15T08:36:07;0.40;;;0.40;;
12127;SDS011;6127;57.702;11.904;2023-04-15T08:38:33;0.30;;;0.30;;
12127;SDS011;6127;57.702;11.904;2023-04-15T08:41:02;0.25;;;0.25;;
12127;SDS011;6127;57.702;11.904;2023-04-15T08:43:32;0.20;;;0.20;;
12127;SDS011;6127;57.702;11.904;2023-04-15T08:45:58;0.20;;;0.20;;
12127;SDS011;6127;57.702;11.904;2023-04-15T08:48:28;0.38;;;0.38;;
12127;SDS011;6127;57.702;11.904;2023-04-15T08:50:57;0.50;;;0.50;;
12127;SDS011;6127;57.702;11.904;2023-04-15T08:53:23;0.40;;;0.40;;
12127;SDS011;6127;57.702;11.904;2023-04-15T08:55:50;0.40;;;0.40;;
12127;SDS011;6127;57.702;11.904;2023-04-15T08:58:16;0.40;;;0.40;;
12127;SDS011;6127;57.702;11.904;2023-04-15T09:00:44;0.30;;;0.30;;
12127;SDS011;6127;57.702;11.904;2023-04-15T09:03:10;0.30;;;0.30;;
12127;SDS011;6127;57.702;11.904;2023-04-15T09:05:37;0.30;;;0.30;;
12127;SDS011;6127;57.702;11.904;2023-04-15T09:08:03;0.20;;;0.20;;
12127;SDS011;6127;57.702;11.904;2023-04-15T09:10:30;0.20;;;0.20;;
12127;SDS011;6127;57.702;11.904;2023-04-15T09:12:56;0.20;;;0.20;;
12127;SDS011;6127;57.702;11.904;2023-04-15T09:15:25;0.40;;;0.40;;
12127;SDS011;6127;57.702;11.904;2023-04-15T09:17:53;0.40;;;0.40;;
12127;SDS011;6127;57.702;11.904;2023-04-15T09:20:20;0.30;;;0.30;;
12127;SDS011;6127;57.702;11.904;2023-04-15T09:22:47;0.30;;;0.30;;
12127;SDS011;6127;57.702;11.904;2023-04-15T09:27:49;0.30;;;0.30;;
12127;SDS011;6127;57.702;11.904;2023-04-15T09:30:16;0.20;;;0.20;;
12127;SDS011;6127;57.702;11.904;2023-04-15T09:32:52;0.35;;;0.35;;
12127;SDS011;6127;57.702;11.904;2023-04-15T09:35:18;0.40;;;0.40;;
12127;SDS011;6127;57.702;11.904;2023-04-15T09:37:45;0.40;;;0.40;;
12127;SDS011;6127;57.702;11.904;2023-04-15T09:40:11;0.30;;;0.30;;
12127;SDS011;6127;57.702;11.904;2023-04-15T09:42:56;0.30;;;0.30;;
12127;SDS011;6127;57.702;11.904;2023-04-15T09:45:22;0.30;;;0.30;;
12127;SDS011;6127;57.702;11.904;2023-04-15T09:47:49;0.40;;;0.40;;
12127;SDS011;6127;57.702;11.904;2023-04-15T09:50:18;0.30;;;0.30;;
12127;SDS011;6127;57.702;11.904;2023-04-15T09:52:45;0.30;;;0.30;;
12127;SDS011;6127;57.702;11.904;2023-04-15T09:55:11;0.20;;;0.20;;
12127;SDS011;6127;57.702;11.904;2023-04-15T09:57:38;0.10;;;0.10;;
12127;SDS011;6127;57.702;11.904;2023-04-15T10:00:08;0.30;;;0.30;;
12127;SDS011;6127;57.702;11.904;2023-04-15T10:02:35;0.30;;;0.30;;
12127;SDS011;6127;57.702;11.904;2023-04-15T10:05:02;0.20;;;0.20;;
12127;SDS011;6127;57.702;11.904;2023-04-15T10:07:28;0.15;;;0.15;;
12127;SDS011;6127;57.702;11.904;2023-04-15T10:09:54;0.38;;;0.38;;
12127;SDS011;6127;57.702;11.904;2023-04-15T10:12:21;0.20;;;0.20;;
12127;SDS011;6127;57.702;11.904;2023-04-15T10:14:49;0.30;;;0.30;;
12127;SDS011;6127;57.702;11.904;2023-04-15T10:17:17;0.20;;;0.20;;
12127;SDS011;6127;57.702;11.904;2023-04-15T10:19:43;0.30;;;0.30;;
12127;SDS011;6127;57.702;11.904;2023-04-15T10:22:09;0.20;;;0.20;;
12127;SDS011;6127;57.702;11.904;2023-04-15T10:24:35;0.10;;;0.10;;
12127;SDS011;6127;57.702;11.904;2023-04-15T10:27:03;0.15;;;0.15;;
12127;SDS011;6127;57.702;11.904;2023-04-15T10:29:30;0.20;;;0.20;;
12127;SDS011;6127;57.702;11.904;2023-04-15T10:31:57;0.20;;;0.20;;
12127;SDS011;6127;57.702;11.904;2023-04-15T10:34:24;0.10;;;0.10;;
12127;SDS011;6127;57.702;11.904;2023-04-15T10:36:50;0.10;;;0.10;;
12127;SDS011;6127;57.702;11.904;2023-04-15T10:42:14;0.10;;;0.10;;
12127;SDS011;6127;57.702;11.904;2023-04-15T10:44:41;0.10;;;0.10;;
12127;SDS011;6127;57.702;11.904;2023-04-15T10:47:14;0.10;;;0.10;;
12127;SDS011;6127;57.702;11.904;2023-04-15T10:49:46;0.10;;;0.10;;
12127;SDS011;6127;57.702;11.904;2023-04-15T10:52:13;0.10;;;0.10;;
12127;SDS011;6127;57.702;11.904;2023-04-15T10:54:40;0.20;;;0.20;;
12127;SDS011;6127;57.702;11.904;2023-04-15T10:57:07;0.10;;;0.10;;
12127;SDS011;6127;57.702;11.904;2023-04-15T10:59:37;0.10;;;0.10;;
12127;SDS011;6127;57.702;11.904;2023-04-15T11:02:05;0.20;;;0.20;;
12127;SDS011;6127;57.702;11.904;2023-04-15T11:10:03;0.10;;;0.10;;
12127;SDS011;6127;57.702;11.904;2023-04-15T11:12:33;0.10;;;0.10;;
12127;SDS011;6127;57.702;11.904;2023-04-15T11:15:20;0.10;;;0.10;;
12127;SDS011;6127;57.702;11.904;2023-04-15T11:17:46;0.10;;;0.10;;
12127;SDS011;6127;57.702;11.904;2023-04-15T11:20:14;0.03;;;0.03;;
12127;SDS011;6127;57.702;11.904;2023-04-15T11:22:48;0.00;;;0.00;;
12127;SDS011;6127;57.702;11.904;2023-04-15T11:25:22;0.10;;;0.10;;
12127;SDS011;6127;57.702;11.904;2023-04-15T11:27:48;0.10;;;0.10;;
12127;SDS011;6127;57.702;11.904;2023-04-15T11:30:18;0.10;;;0.10;;
12127;SDS011;6127;57.702;11.904;2023-04-15T11:32:45;0.10;;;0.10;;
12127;SDS011;6127;57.702;11.904;2023-04-15T11:35:11;0.05;;;0.05;;
12127;SDS011;6127;57.702;11.904;2023-04-15T11:37:37;0.10;;;0.10;;
12127;SDS011;6127;57.702;11.904;2023-04-15T11:40:03;0.10;;;0.10;;
12127;SDS011;6127;57.702;11.904;2023-04-15T11:42:29;0.10;;;0.10;;
12127;SDS011;6127;57.702;11.904;2023-04-15T11:45:13;0.10;;;0.10;;
12127;SDS011;6127;57.702;11.904;2023-04-15T11:47:40;0.10;;;0.10;;
12127;SDS011;6127;57.702;11.904;2023-04-15T11:50:19;0.10;;;0.10;;
12127;SDS011;6127;57.702;11.904;2023-04-15T11:52:56;0.10;;;0.10;;
12127;SDS011;6127;57.702;11.904;2023-04-15T11:55:22;0.10;;;0.10;;
12127;SDS011;6127;57.702;11.904;2023-04-15T11:58:34;0.10;;;0.10;;
12127;SDS011;6127;57.702;11.904;2023-04-15T12:00:35;0.10;;;0.10;;
12127;SDS011;6127;57.702;11.904;2023-04-15T12:03:16;0.10;;;0.10;;
12127;SDS011;6127;57.702;11.904;2023-04-15T12:08:46;0.10;;;0.10;;
12127;SDS011;6127;57.702;11.904;2023-04-15T12:11:13;0.10;;;0.10;;
12127;SDS011;6127;57.702;11.904;2023-04-15T12:13:42;0.10;;;0.10;;
12127;SDS011;6127;57.702;11.904;2023-04-15T12:16:08;0.03;;;0.03;;
12127;SDS011;6127;57.702;11.904;2023-04-15T12:18:36;0.10;;;0.10;;
12127;SDS011;6127;57.702;11.904;2023-04-15T12:21:03;0.10;;;0.10;;
12127;SDS011;6127;57.702;11.904;2023-04-15T12:23:35;0.10;;;0.10;;
12127;SDS011;6127;57.702;11.904;2023-04-15T12:26:04;0.10;;;0.10;;
12127;SDS011;6127;57.702;11.904;2023-04-15T12:28:30;0.10;;;0.10;;
12127;SDS011;6127;57.702;11.904;2023-04-15T12:30:57;0.20;;;0.20;;
12127;SDS011;6127;57.702;11.904;2023-04-15T12:33:24;0.10;;;0.10;;
12127;SDS011;6127;57.702;11.904;2023-04-15T12:35:57;0.10;;;0.10;;
12127;SDS011;6127;57.702;11.904;2023-04-15T12:38:23;0.10;;;0.10;;
12127;SDS011;6127;57.702;11.904;2023-04-15T12:40:49;0.10;;;0.10;;
12127;SDS011;6127;57.702;11.904;2023-04-15T12:43:15;0.10;;;0.10;;
12127;SDS011;6127;57.702;11.904;2023-04-15T12:45:41;0.17;;;0.17;;
12127;SDS011;6127;57.702;11.904;2023-04-15T12:48:07;0.10;;;0.10;;
12127;SDS011;6127;57.702;11.904;2023-04-15T12:50:33;0.10;;;0.10;;
12127;SDS011;6127;57.702;11.904;2023-04-15T12:52:59;0.20;;;0.20;;
12127;SDS011;6127;57.702;11.904;2023-04-15T12:55:25;0.10;;;0.10;;
12127;SDS011;6127;57.702;11.904;2023-04-15T12:57:52;0.10;;;0.10;;
12127;SDS011;6127;57.702;11.904;2023-04-15T13:00:18;0.10;;;0.10;;
12127;SDS011;6127;57.702;11.904;2023-04-15T13:02:44;0.10;;;0.10;;
12127;SDS011;6127;57.702;11.904;2023-04-15T13:05:10;0.10;;;0.10;;
12127;SDS011;6127;57.702;11.904;2023-04-15T13:07:38;0.10;;;0.10;;
12127;SDS011;6127;57.702;11.904;2023-04-15T13:10:04;0.08;;;0.08;;
12127;SDS011;6127;57.702;11.904;2023-04-15T13:12:31;0.10;;;0.10;;
12127;SDS011;6127;57.702;11.904;2023-04-15T13:15:00;0.10;;;0.10;;
12127;SDS011;6127;57.702;11.904;2023-04-15T13:17:26;0.10;;;0.10;;
12127;SDS011;6127;57.702;11.904;2023-04-15T13:19:52;0.10;;;0.10;;
12127;SDS011;6127;57.702;11.904;2023-04-15T13:22:18;0.10;;;0.10;;
12127;SDS011;6127;57.702;11.904;2023-04-15T13:24:44;0.10;;;0.10;;
12127;SDS011;6127;57.702;11.904;2023-04-15T13:27:10;0.10;;;0.10;;
12127;SDS011;6127;57.702;11.904;2023-04-15T13:29:36;0.10;;;0.10;;
12127;SDS011;6127;57.702;11.904;2023-04-15T13:32:02;0.10;;;0.10;;
12127;SDS011;6127;57.702;11.904;2023-04-15T13:34:28;0.10;;;0.10;;
12127;SDS011;6127;57.702;11.904;2023-04-15T13:36:54;0.10;;;0.10;;
12127;SDS011;6127;57.702;11.904;2023-04-15T13:39:20;0.20;;;0.20;;
12127;SDS011;6127;57.702;11.904;2023-04-15T13:41:46;0.10;;;0.10;;
12127;SDS011;6127;57.702;11.904;2023-04-15T13:44:12;0.10;;;0.10;;
12127;SDS011;6127;57.702;11.904;2023-04-15T13:46:38;0.20;;;0.20;;
12127;SDS011;6127;57.702;11.904;2023-04-15T13:49:06;0.20;;;0.20;;
12127;SDS011;6127;57.702;11.904;2023-04-15T13:51:31;0.20;;;0.20;;
12127;SDS011;6127;57.702;11.904;2023-04-15T13:54:00;0.13;;;0.13;;
12127;SDS011;6127;57.702;11.904;2023-04-15T13:56:26;0.10;;;0.10;;
12127;SDS011;6127;57.702;11.904;2023-04-15T13:58:52;0.20;;;0.20;;
12127;SDS011;6127;57.702;11.904;2023-04-15T14:01:22;0.10;;;0.10;;
12127;SDS011;6127;57.702;11.904;2023-04-15T14:03:48;0.10;;;0.10;;
12127;SDS011;6127;57.702;11.904;2023-04-15T14:06:14;0.15;;;0.15;;
12127;SDS011;6127;57.702;11.904;2023-04-15T14:08:40;0.10;;;0.10;;
12127;SDS011;6127;57.702;11.904;2023-04-15T14:11:06;0.20;;;0.20;;
12127;SDS011;6127;57.702;11.904;2023-04-15T14:13:32;0.20;;;0.20;;
12127;SDS011;6127;57.702;11.904;2023-04-15T14:15:58;0.20;;;0.20;;
12127;SDS011;6127;57.702;11.904;2023-04-15T14:18:24;0.20;;;0.20;;
12127;SDS011;6127;57.702;11.904;2023-04-15T14:20:50;0.20;;;0.20;;
12127;SDS011;6127;57.702;11.904;2023-04-15T14:23:16;0.20;;;0.20;;
12127;SDS011;6127;57.702;11.904;2023-04-15T14:25:42;0.10;;;0.10;;
12127;SDS011;6127;57.702;11.904;2023-04-15T14:28:08;0.10;;;0.10;;
12127;SDS011;6127;57.702;11.904;2023-04-15T14:30:34;0.10;;;0.10;;
12127;SDS011;6127;57.702;11.904;2023-04-15T14:33:00;0.20;;;0.20;;
12127;SDS011;6127;57.702;11.904;2023-04-15T14:35:27;0.20;;;0.20;;
12127;SDS011;6127;57.702;11.904;2023-04-15T14:37:53;0.28;;;0.28;;
12127;SDS011;6127;57.702;11.904;2023-04-15T14:40:19;0.20;;;0.20;;
12127;SDS011;6127;57.702;11.904;2023-04-15T14:42:45;0.10;;;0.10;;
12127;SDS011;6127;57.702;11.904;2023-04-15T14:45:12;0.10;;;0.10;;
12127;SDS011;6127;57.702;11.904;2023-04-15T14:47:37;0.10;;;0.10;;
12127;SDS011;6127;57.702;11.904;2023-04-15T14:50:04;0.20;;;0.20;;
12127;SDS011;6127;57.702;11.904;2023-04-15T14:52:30;0.30;;;0.30;;
12127;SDS011;6127;57.702;11.904;2023-04-15T14:55:02;0.20;;;0.20;;
12127;SDS011;6127;57.702;11.904;2023-04-15T14:57:28;0.30;;;0.30;;
12127;SDS011;6127;57.702;11.904;2023-04-15T14:59:54;0.15;;;0.15;;